Time;durP1;ratioP1;P1;durP2;ratioP2;P2;SDS_P1;SDS_P2;PMS_P1;PMS_P2;Temp;Humidity;BMP_temperature;BMP_pressure;BME280_temperature;BME280_humidity;BME280_pressure;Samples;Min_cycle;Max_cycle;Signal;HPM_P1;HPM_P2
2023/11/29 00:01:41;;;;;;;5.7;4.8;;;;;;;;;;;;;
2023/11/29 00:04:11;;;;;;;5.8;4.7;;;;;;;;;;;;;
2023/11/29 00:06:40;;;;;;;5.7;4.6;;;;;;;;;;;;;
2023/11/29 00:09:12;;;;;;;5.4;4.7;;;;;;;;;;;;;
2023/11/29 00:11:46;;;;;;;5.5;4.7;;;;;;;;;;;;;
2023/11/29 00:14:13;;;;;;;5;4.5;;;;;;;;;;;;;
2023/11/29 00:16:38;;;;;;;5.3;4.3;;;;;;;;;;;;;
2023/11/29 00:19:06;;;;;;;4.9;4.4;;;;;;;;;;;;;
2023/11/29 00:21:32;;;;;;;4.7;4.2;;;;;;;;;;;;;
2023/11/29 00:23:57;;;;;;;6.8;5.5;;;;;;;;;;;;;
2023/11/29 00:26:24;;;;;;;7.3;5.5;;;;;;;;;;;;;
2023/11/29 00:28:50;;;;;;;7.1;5.5;;;;;;;;;;;;;
2023/11/29 00:31:16;;;;;;;7.6;6.1;;;;;;;;;;;;;
2023/11/29 00:33:41;;;;;;;7.2;6;;;;;;;;;;;;;
2023/11/29 00:36:07;;;;;;;7.7;6.1;;;;;;;;;;;;;
2023/11/29 00:38:32;;;;;;;8.3;6.1;;;;;;;;;;;;;
2023/11/29 00:41:04;;;;;;;8.1;6.3;;;;;;;;;;;;;
2023/11/29 00:43:32;;;;;;;8;6.3;;;;;;;;;;;;;
2023/11/29 00:45:57;;;;;;;7.1;6;;;;;;;;;;;;;
2023/11/29 00:48:22;;;;;;;8.1;6.3;;;;;;;;;;;;;
2023/11/29 00:50:49;;;;;;;7.8;6.1;;;;;;;;;;;;;
2023/11/29 00:53:15;;;;;;;7.7;6.3;;;;;;;;;;;;;
2023/11/29 00:55:40;;;;;;;7.6;6.4;;;;;;;;;;;;;
2023/11/29 00:58:07;;;;;;;7.7;6.4;;;;;;;;;;;;;
2023/11/29 01:00:32;;;;;;;8;6.3;;;;;;;;;;;;;
2023/11/29 01:03:02;;;;;;;8.9;6;;;;;;;;;;;;;
2023/11/29 01:05:30;;;;;;;8.5;6.5;;;;;;;;;;;;;
2023/11/29 01:07:55;;;;;;;8.3;6.4;;;;;;;;;;;;;
2023/11/29 01:10:20;;;;;;;9;6.7;;;;;;;;;;;;;
2023/11/29 01:12:45;;;;;;;8.9;7.1;;;;;;;;;;;;;
2023/11/29 01:15:15;;;;;;;9.4;7.3;;;;;;;;;;;;;
2023/11/29 01:17:43;;;;;;;9;6.9;;;;;;;;;;;;;
2023/11/29 01:20:08;;;;;;;10.1;7.6;;;;;;;;;;;;;
2023/11/29 01:22:37;;;;;;;9.3;7;;;;;;;;;;;;;
2023/11/29 01:25:03;;;;;;;7.1;6.2;;;;;;;;;;;;;
2023/11/29 01:27:30;;;;;;;8;6.4;;;;;;;;;;;;;
2023/11/29 01:29:56;;;;;;;7.9;5.9;;;;;;;;;;;;;
2023/11/29 01:32:21;;;;;;;8.6;6.5;;;;;;;;;;;;;
2023/11/29 01:34:46;;;;;;;9;6.8;;;;;;;;;;;;;
2023/11/29 01:37:11;;;;;;;7.8;6;;;;;;;;;;;;;
2023/11/29 01:39:44;;;;;;;8.7;5.9;;;;;;;;;;;;;
2023/11/29 01:42:05;;;;;;;7.9;6.1;;;;;;;;;;;;;
2023/11/29 01:44:31;;;;;;;8;6.3;;;;;;;;;;;;;
2023/11/29 01:46:56;;;;;;;8.1;6;;;;;;;;;;;;;
2023/11/29 01:49:22;;;;;;;7.6;6.1;;;;;;;;;;;;;
2023/11/29 01:51:47;;;;;;;8.9;6;;;;;;;;;;;;;
2023/11/29 01:54:13;;;;;;;6.8;5.5;;;;;;;;;;;;;
2023/11/29 01:56:37;;;;;;;7.4;5.7;;;;;;;;;;;;;
2023/11/29 01:59:04;;;;;;;7.5;5.9;;;;;;;;;;;;;
2023/11/29 02:01:29;;;;;;;7.3;5.7;;;;;;;;;;;;;
2023/11/29 02:03:56;;;;;;;6.2;4.9;;;;;;;;;;;;;
2023/11/29 02:06:21;;;;;;;6.7;5.3;;;;;;;;;;;;;
2023/11/29 02:08:47;;;;;;;6.3;5.2;;;;;;;;;;;;;
2023/11/29 02:11:12;;;;;;;6.1;5.3;;;;;;;;;;;;;
2023/11/29 02:13:37;;;;;;;6;4.9;;;;;;;;;;;;;
2023/11/29 02:16:02;;;;;;;6.3;5.1;;;;;;;;;;;;;
2023/11/29 02:18:29;;;;;;;6.8;5.2;;;;;;;;;;;;;
2023/11/29 02:20:54;;;;;;;6.7;5.5;;;;;;;;;;;;;
2023/11/29 02:23:20;;;;;;;5.7;5.1;;;;;;;;;;;;;
2023/11/29 02:25:45;;;;;;;6;4.6;;;;;;;;;;;;;
2023/11/29 02:28:11;;;;;;;5.4;4.8;;;;;;;;;;;;;
2023/11/29 02:30:36;;;;;;;5.7;4.7;;;;;;;;;;;;;
2023/11/29 02:33:02;;;;;;;5.6;4.8;;;;;;;;;;;;;
2023/11/29 02:35:27;;;;;;;6.1;5.4;;;;;;;;;;;;;
2023/11/29 02:37:55;;;;;;;7.4;5.8;;;;;;;;;;;;;
2023/11/29 02:40:20;;;;;;;7.2;5.3;;;;;;;;;;;;;
2023/11/29 02:42:49;;;;;;;7;5.5;;;;;;;;;;;;;
2023/11/29 02:45:19;;;;;;;5.7;4.7;;;;;;;;;;;;;
2023/11/29 02:47:44;;;;;;;6;4.7;;;;;;;;;;;;;
2023/11/29 02:50:17;;;;;;;5.1;4.6;;;;;;;;;;;;;
2023/11/29 02:52:40;;;;;;;5.3;4.7;;;;;;;;;;;;;
2023/11/29 02:55:07;;;;;;;6;5.2;;;;;;;;;;;;;
2023/11/29 02:57:32;;;;;;;6.1;4.5;;;;;;;;;;;;;
2023/11/29 02:59:59;;;;;;;6;4.8;;;;;;;;;;;;;
2023/11/29 03:02:24;;;;;;;5.9;4.7;;;;;;;;;;;;;
2023/11/29 03:04:52;;;;;;;5.3;4.4;;;;;;;;;;;;;
2023/11/29 03:07:16;;;;;;;4.7;4;;;;;;;;;;;;;
2023/11/29 03:09:42;;;;;;;4.7;4.2;;;;;;;;;;;;;
2023/11/29 03:12:07;;;;;;;4.6;4.1;;;;;;;;;;;;;
2023/11/29 03:14:34;;;;;;;4.5;4;;;;;;;;;;;;;
2023/11/29 03:16:59;;;;;;;3.7;3.4;;;;;;;;;;;;;
2023/11/29 03:19:25;;;;;;;4.3;3.9;;;;;;;;;;;;;
2023/11/29 03:21:50;;;;;;;5.3;4.6;;;;;;;;;;;;;
2023/11/29 03:24:16;;;;;;;5.2;4.5;;;;;;;;;;;;;
2023/11/29 03:26:41;;;;;;;5.8;4.3;;;;;;;;;;;;;
2023/11/29 03:29:08;;;;;;;4.6;3.8;;;;;;;;;;;;;
2023/11/29 03:31:33;;;;;;;5.4;4.1;;;;;;;;;;;;;
2023/11/29 03:33:58;;;;;;;4.4;3.9;;;;;;;;;;;;;
2023/11/29 03:36:23;;;;;;;4.2;3.7;;;;;;;;;;;;;
2023/11/29 03:38:51;;;;;;;4.5;4;;;;;;;;;;;;;
2023/11/29 03:41:16;;;;;;;4.6;3.7;;;;;;;;;;;;;
2023/11/29 03:43:42;;;;;;;4.6;3.6;;;;;;;;;;;;;
2023/11/29 03:46:07;;;;;;;3.7;3.3;;;;;;;;;;;;;
2023/11/29 03:48:33;;;;;;;4.7;3.8;;;;;;;;;;;;;
2023/11/29 03:50:58;;;;;;;4.4;3.6;;;;;;;;;;;;;
2023/11/29 03:53:24;;;;;;;4.9;4.3;;;;;;;;;;;;;
2023/11/29 03:55:49;;;;;;;56.5;29.9;;;;;;;;;;;;;
2023/11/29 03:58:15;;;;;;;34.9;22.2;;;;;;;;;;;;;
2023/11/29 04:02:38;;;;;;;7.2;4.8;;;;;;;;;;;;;
2023/11/29 04:05:03;;;;;;;4.4;4;;;;;;;;;;;;;
2023/11/29 04:07:29;;;;;;;4.3;3.9;;;;;;;;;;;;;
2023/11/29 04:09:56;;;;;;;4.2;3.7;;;;;;;;;;;;;
2023/11/29 04:12:22;;;;;;;3.9;3.5;;;;;;;;;;;;;
2023/11/29 04:14:49;;;;;;;6;4.3;;;;;;;;;;;;;
2023/11/29 04:17:14;;;;;;;5;4.1;;;;;;;;;;;;;
2023/11/29 04:19:41;;;;;;;4.7;4.1;;;;;;;;;;;;;
2023/11/29 04:22:06;;;;;;;6.6;4.5;;;;;;;;;;;;;
2023/11/29 04:24:33;;;;;;;5.8;4.5;;;;;;;;;;;;;
2023/11/29 04:26:57;;;;;;;5.8;4.3;;;;;;;;;;;;;
2023/11/29 04:29:25;;;;;;;7;4.4;;;;;;;;;;;;;
2023/11/29 04:31:50;;;;;;;5.2;4.4;;;;;;;;;;;;;
2023/11/29 04:34:18;;;;;;;5.7;4.6;;;;;;;;;;;;;
2023/11/29 04:36:44;;;;;;;7;4.9;;;;;;;;;;;;;
2023/11/29 04:39:13;;;;;;;7;4.6;;;;;;;;;;;;;
2023/11/29 04:41:37;;;;;;;7.2;5.5;;;;;;;;;;;;;
2023/11/29 04:44:06;;;;;;;8.2;5.3;;;;;;;;;;;;;
2023/11/29 04:46:30;;;;;;;6.6;5.1;;;;;;;;;;;;;
2023/11/29 04:48:57;;;;;;;7.2;5.2;;;;;;;;;;;;;
2023/11/29 04:51:22;;;;;;;6.1;4.4;;;;;;;;;;;;;
2023/11/29 04:53:47;;;;;;;7.2;4.6;;;;;;;;;;;;;
2023/11/29 04:56:12;;;;;;;7.6;4.8;;;;;;;;;;;;;
2023/11/29 04:58:41;;;;;;;6.4;4.9;;;;;;;;;;;;;
2023/11/29 05:01:04;;;;;;;5.4;4.4;;;;;;;;;;;;;
2023/11/29 05:03:30;;;;;;;7.1;4.6;;;;;;;;;;;;;
2023/11/29 05:05:55;;;;;;;7.4;5;;;;;;;;;;;;;
2023/11/29 05:08:23;;;;;;;6;4.7;;;;;;;;;;;;;
2023/11/29 05:10:48;;;;;;;6.7;5;;;;;;;;;;;;;
2023/11/29 05:13:17;;;;;;;7.7;6.4;;;;;;;;;;;;;
2023/11/29 05:15:47;;;;;;;10.1;8;;;;;;;;;;;;;
2023/11/29 05:18:06;;;;;;;6.9;4.9;;;;;;;;;;;;;
2023/11/29 05:20:33;;;;;;;8.6;5.4;;;;;;;;;;;;;
2023/11/29 05:22:58;;;;;;;6.5;4.7;;;;;;;;;;;;;
2023/11/29 05:25:26;;;;;;;8.2;5.2;;;;;;;;;;;;;
2023/11/29 05:27:51;;;;;;;8.1;5.4;;;;;;;;;;;;;
2023/11/29 05:30:18;;;;;;;9.1;5.3;;;;;;;;;;;;;
2023/11/29 05:32:44;;;;;;;7.1;5.4;;;;;;;;;;;;;
2023/11/29 05:35:10;;;;;;;7.1;3.9;;;;;;;;;;;;;
2023/11/29 05:37:35;;;;;;;9.9;8.5;;;;;;;;;;;;;
2023/11/29 05:40:02;;;;;;;9.9;6.1;;;;;;;;;;;;;
2023/11/29 05:42:27;;;;;;;10.8;6.4;;;;;;;;;;;;;
2023/11/29 05:44:55;;;;;;;12.5;6.8;;;;;;;;;;;;;
2023/11/29 05:47:19;;;;;;;10.6;6.7;;;;;;;;;;;;;
2023/11/29 05:49:45;;;;;;;15.7;8.4;;;;;;;;;;;;;
2023/11/29 05:52:10;;;;;;;9.7;5.2;;;;;;;;;;;;;
2023/11/29 05:54:39;;;;;;;6;3.7;;;;;;;;;;;;;
2023/11/29 05:57:03;;;;;;;9.4;6.4;;;;;;;;;;;;;
2023/11/29 05:59:30;;;;;;;12.3;6.4;;;;;;;;;;;;;
2023/11/29 06:01:57;;;;;;;15.9;8.5;;;;;;;;;;;;;
2023/11/29 06:04:22;;;;;;;11.9;7.3;;;;;;;;;;;;;
2023/11/29 06:06:47;;;;;;;12.2;7.2;;;;;;;;;;;;;
2023/11/29 06:09:15;;;;;;;13;7.9;;;;;;;;;;;;;
2023/11/29 06:11:40;;;;;;;15.9;8.4;;;;;;;;;;;;;
2023/11/29 06:14:05;;;;;;;12.8;8.5;;;;;;;;;;;;;
2023/11/29 06:16:30;;;;;;;12.4;7.8;;;;;;;;;;;;;
2023/11/29 06:18:57;;;;;;;11.7;8.2;;;;;;;;;;;;;
2023/11/29 06:21:22;;;;;;;11.2;8.6;;;;;;;;;;;;;
2023/11/29 06:23:47;;;;;;;12.8;8.5;;;;;;;;;;;;;
2023/11/29 06:26:12;;;;;;;14.8;8.9;;;;;;;;;;;;;
2023/11/29 06:28:41;;;;;;;14.9;9.9;;;;;;;;;;;;;
2023/11/29 06:31:05;;;;;;;12.1;8.1;;;;;;;;;;;;;
2023/11/29 06:33:31;;;;;;;7.3;4.8;;;;;;;;;;;;;
2023/11/29 06:35:58;;;;;;;5.5;4.1;;;;;;;;;;;;;
2023/11/29 06:38:26;;;;;;;7.1;5;;;;;;;;;;;;;
2023/11/29 06:40:51;;;;;;;10.4;6.2;;;;;;;;;;;;;
2023/11/29 06:43:16;;;;;;;23.6;13;;;;;;;;;;;;;
2023/11/29 06:45:41;;;;;;;41.9;20.8;;;;;;;;;;;;;
2023/11/29 06:48:07;;;;;;;37.6;20.3;;;;;;;;;;;;;
2023/11/29 06:50:32;;;;;;;18.9;11.5;;;;;;;;;;;;;
2023/11/29 06:53:00;;;;;;;75.6;38.7;;;;;;;;;;;;;
2023/11/29 06:55:24;;;;;;;35;19;;;;;;;;;;;;;
2023/11/29 06:57:51;;;;;;;16.9;10.8;;;;;;;;;;;;;
2023/11/29 07:00:16;;;;;;;24.4;15.7;;;;;;;;;;;;;
2023/11/29 07:02:44;;;;;;;31.8;23;;;;;;;;;;;;;
2023/11/29 07:05:09;;;;;;;27;16.3;;;;;;;;;;;;;
2023/11/29 07:07:36;;;;;;;160.5;61.9;;;;;;;;;;;;;
2023/11/29 07:10:02;;;;;;;78.1;33;;;;;;;;;;;;;
2023/11/29 07:12:28;;;;;;;33.3;17.1;;;;;;;;;;;;;
2023/11/29 07:14:54;;;;;;;43.1;22;;;;;;;;;;;;;
2023/11/29 07:17:21;;;;;;;62.8;31.8;;;;;;;;;;;;;
2023/11/29 07:19:47;;;;;;;62.9;32;;;;;;;;;;;;;
2023/11/29 07:22:12;;;;;;;42.7;23;;;;;;;;;;;;;
2023/11/29 07:24:37;;;;;;;21.8;13.3;;;;;;;;;;;;;
2023/11/29 07:27:03;;;;;;;12.5;8.1;;;;;;;;;;;;;
2023/11/29 07:29:29;;;;;;;51.2;25.3;;;;;;;;;;;;;
2023/11/29 07:31:56;;;;;;;16.2;8.9;;;;;;;;;;;;;
2023/11/29 07:34:21;;;;;;;12.5;7.7;;;;;;;;;;;;;
2023/11/29 07:36:51;;;;;;;12.6;8.5;;;;;;;;;;;;;
2023/11/29 07:39:13;;;;;;;11.6;7.8;;;;;;;;;;;;;
2023/11/29 07:41:38;;;;;;;17.1;9.5;;;;;;;;;;;;;
2023/11/29 07:44:04;;;;;;;9.2;6.3;;;;;;;;;;;;;
2023/11/29 07:46:31;;;;;;;27;13.6;;;;;;;;;;;;;
2023/11/29 07:48:56;;;;;;;5.9;4.7;;;;;;;;;;;;;
2023/11/29 07:51:24;;;;;;;8.7;6;;;;;;;;;;;;;
2023/11/29 07:53:49;;;;;;;6.5;4.5;;;;;;;;;;;;;
2023/11/29 07:56:15;;;;;;;6.3;4.3;;;;;;;;;;;;;
2023/11/29 07:58:41;;;;;;;28;14.7;;;;;;;;;;;;;
2023/11/29 08:01:08;;;;;;;22;11.3;;;;;;;;;;;;;
2023/11/29 08:03:32;;;;;;;19.2;10.4;;;;;;;;;;;;;
2023/11/29 08:06:01;;;;;;;5.7;4;;;;;;;;;;;;;
2023/11/29 08:08:29;;;;;;;10;5.6;;;;;;;;;;;;;
2023/11/29 08:10:54;;;;;;;17.4;8.9;;;;;;;;;;;;;
2023/11/29 08:13:24;;;;;;;19.4;9.1;;;;;;;;;;;;;
2023/11/29 08:15:56;;;;;;;8.6;3.9;;;;;;;;;;;;;
2023/11/29 08:18:24;;;;;;;18.7;9.2;;;;;;;;;;;;;
2023/11/29 08:20:49;;;;;;;19.2;8.2;;;;;;;;;;;;;
2023/11/29 08:23:17;;;;;;;4.6;2.4;;;;;;;;;;;;;
2023/11/29 08:25:42;;;;;;;4.5;2.5;;;;;;;;;;;;;
2023/11/29 08:28:07;;;;;;;4.5;3.2;;;;;;;;;;;;;
2023/11/29 08:30:33;;;;;;;8.4;4.5;;;;;;;;;;;;;
2023/11/29 08:33:00;;;;;;;31.4;13;;;;;;;;;;;;;
2023/11/29 08:35:25;;;;;;;7.6;3.9;;;;;;;;;;;;;
2023/11/29 08:37:52;;;;;;;5.2;3.1;;;;;;;;;;;;;
2023/11/29 08:40:17;;;;;;;3;2.4;;;;;;;;;;;;;
2023/11/29 08:42:45;;;;;;;10.1;5.6;;;;;;;;;;;;;
2023/11/29 08:45:10;;;;;;;8.4;5.1;;;;;;;;;;;;;
2023/11/29 08:47:36;;;;;;;35.8;17.6;;;;;;;;;;;;;
2023/11/29 08:50:01;;;;;;;4.8;2.9;;;;;;;;;;;;;
2023/11/29 08:52:31;;;;;;;7.6;4.7;;;;;;;;;;;;;
2023/11/29 08:54:55;;;;;;;13.3;8.1;;;;;;;;;;;;;
2023/11/29 08:57:20;;;;;;;2;1.5;;;;;;;;;;;;;
2023/11/29 08:59:45;;;;;;;21.7;13.6;;;;;;;;;;;;;
2023/11/29 09:02:13;;;;;;;8.7;6.2;;;;;;;;;;;;;
2023/11/29 09:04:38;;;;;;;4.7;3.8;;;;;;;;;;;;;
2023/11/29 09:07:04;;;;;;;3.6;2.2;;;;;;;;;;;;;
2023/11/29 09:09:29;;;;;;;2.5;1.7;;;;;;;;;;;;;
2023/11/29 09:11:55;;;;;;;1.7;1.6;;;;;;;;;;;;;
2023/11/29 09:14:20;;;;;;;2.6;1.6;;;;;;;;;;;;;
2023/11/29 09:16:46;;;;;;;2.9;2;;;;;;;;;;;;;
2023/11/29 09:19:11;;;;;;;2.1;1.9;;;;;;;;;;;;;
2023/11/29 09:21:38;;;;;;;1.8;1.7;;;;;;;;;;;;;
2023/11/29 09:24:04;;;;;;;1.8;1.7;;;;;;;;;;;;;
2023/11/29 09:26:30;;;;;;;2.5;1.9;;;;;;;;;;;;;
2023/11/29 09:28:55;;;;;;;2;1.6;;;;;;;;;;;;;
2023/11/29 09:31:20;;;;;;;2.7;1.7;;;;;;;;;;;;;
2023/11/29 09:33:46;;;;;;;1.7;1.3;;;;;;;;;;;;;
2023/11/29 09:36:11;;;;;;;1.9;1.7;;;;;;;;;;;;;
2023/11/29 09:38:36;;;;;;;2.1;1.9;;;;;;;;;;;;;
2023/11/29 09:41:02;;;;;;;2.7;1.8;;;;;;;;;;;;;
2023/11/29 09:43:28;;;;;;;3.3;1.7;;;;;;;;;;;;;
2023/11/29 09:45:56;;;;;;;1.8;1.7;;;;;;;;;;;;;
2023/11/29 09:48:21;;;;;;;2.6;1.9;;;;;;;;;;;;;
2023/11/29 09:50:49;;;;;;;3;2.3;;;;;;;;;;;;;
2023/11/29 09:53:14;;;;;;;3.9;2.4;;;;;;;;;;;;;
2023/11/29 09:55:43;;;;;;;3.8;2.6;;;;;;;;;;;;;
2023/11/29 09:58:10;;;;;;;2.5;2.2;;;;;;;;;;;;;
2023/11/29 10:00:33;;;;;;;2.9;2.2;;;;;;;;;;;;;
2023/11/29 10:03:00;;;;;;;3;2;;;;;;;;;;;;;
2023/11/29 10:05:25;;;;;;;5.6;2.1;;;;;;;;;;;;;
2023/11/29 10:07:51;;;;;;;2.4;2;;;;;;;;;;;;;
2023/11/29 10:10:16;;;;;;;2.9;2.3;;;;;;;;;;;;;
2023/11/29 10:12:42;;;;;;;4.7;2.8;;;;;;;;;;;;;
2023/11/29 10:15:11;;;;;;;2.4;2;;;;;;;;;;;;;
2023/11/29 10:17:36;;;;;;;2;1.2;;;;;;;;;;;;;
2023/11/29 10:20:01;;;;;;;3;1.3;;;;;;;;;;;;;
2023/11/29 10:22:26;;;;;;;2;1.4;;;;;;;;;;;;;
2023/11/29 10:24:53;;;;;;;1.8;1.6;;;;;;;;;;;;;
2023/11/29 10:27:18;;;;;;;3.4;1.6;;;;;;;;;;;;;
2023/11/29 10:29:44;;;;;;;4;2.3;;;;;;;;;;;;;
2023/11/29 10:32:09;;;;;;;2;1.8;;;;;;;;;;;;;
2023/11/29 10:34:35;;;;;;;2.3;2.1;;;;;;;;;;;;;
2023/11/29 10:37:02;;;;;;;3.5;2.5;;;;;;;;;;;;;
2023/11/29 10:39:28;;;;;;;2.6;1.9;;;;;;;;;;;;;
2023/11/29 10:41:53;;;;;;;3.3;2.1;;;;;;;;;;;;;
2023/11/29 10:44:21;;;;;;;3.3;2.6;;;;;;;;;;;;;
2023/11/29 10:46:47;;;;;;;8.2;3.2;;;;;;;;;;;;;
2023/11/29 10:49:12;;;;;;;3.7;2.8;;;;;;;;;;;;;
2023/11/29 10:51:38;;;;;;;3.7;2.7;;;;;;;;;;;;;
2023/11/29 10:54:03;;;;;;;3.9;2.5;;;;;;;;;;;;;
2023/11/29 10:56:32;;;;;;;4.5;2.7;;;;;;;;;;;;;
2023/11/29 10:58:57;;;;;;;3.8;2.8;;;;;;;;;;;;;
2023/11/29 11:01:25;;;;;;;5;3.1;;;;;;;;;;;;;
2023/11/29 11:03:49;;;;;;;4.8;2.9;;;;;;;;;;;;;
2023/11/29 11:06:19;;;;;;;5.6;3.1;;;;;;;;;;;;;
2023/11/29 11:08:44;;;;;;;5.2;2.7;;;;;;;;;;;;;
2023/11/29 11:11:12;;;;;;;5.1;2.8;;;;;;;;;;;;;
2023/11/29 11:13:37;;;;;;;4.8;3.4;;;;;;;;;;;;;
2023/11/29 11:16:02;;;;;;;3.3;2.7;;;;;;;;;;;;;
2023/11/29 11:18:27;;;;;;;3;2.4;;;;;;;;;;;;;
2023/11/29 11:20:53;;;;;;;3.6;2.5;;;;;;;;;;;;;
2023/11/29 11:23:19;;;;;;;4.4;2.7;;;;;;;;;;;;;
2023/11/29 11:25:44;;;;;;;2.5;2.3;;;;;;;;;;;;;
2023/11/29 11:28:13;;;;;;;4.8;3;;;;;;;;;;;;;
2023/11/29 11:30:37;;;;;;;4.6;2.8;;;;;;;;;;;;;
2023/11/29 11:33:02;;;;;;;5.8;3.2;;;;;;;;;;;;;
2023/11/29 11:35:27;;;;;;;6.7;3.2;;;;;;;;;;;;;
2023/11/29 11:37:54;;;;;;;4.5;2.8;;;;;;;;;;;;;
2023/11/29 11:40:18;;;;;;;3.2;2.5;;;;;;;;;;;;;
2023/11/29 11:42:45;;;;;;;3.6;2.8;;;;;;;;;;;;;
2023/11/29 11:45:10;;;;;;;4.6;2.4;;;;;;;;;;;;;
2023/11/29 11:47:35;;;;;;;4.1;2.6;;;;;;;;;;;;;
2023/11/29 11:50:00;;;;;;;2.8;2.3;;;;;;;;;;;;;
2023/11/29 11:52:25;;;;;;;4.1;2.9;;;;;;;;;;;;;
2023/11/29 11:54:51;;;;;;;3.4;2;;;;;;;;;;;;;
2023/11/29 11:57:17;;;;;;;3;2.4;;;;;;;;;;;;;
2023/11/29 11:59:41;;;;;;;2.9;2.4;;;;;;;;;;;;;
2023/11/29 12:02:09;;;;;;;5.6;3.2;;;;;;;;;;;;;
2023/11/29 12:04:34;;;;;;;3.2;2.3;;;;;;;;;;;;;
2023/11/29 12:07:00;;;;;;;3.9;2.7;;;;;;;;;;;;;
2023/11/29 12:09:26;;;;;;;3.2;2.4;;;;;;;;;;;;;
2023/11/29 12:11:52;;;;;;;4.2;2.4;;;;;;;;;;;;;
2023/11/29 12:14:17;;;;;;;3;2.3;;;;;;;;;;;;;
2023/11/29 12:16:44;;;;;;;2.8;2.4;;;;;;;;;;;;;
2023/11/29 12:19:09;;;;;;;3.9;2.3;;;;;;;;;;;;;
2023/11/29 12:21:34;;;;;;;3.6;2.4;;;;;;;;;;;;;
2023/11/29 12:23:59;;;;;;;5.2;2.9;;;;;;;;;;;;;
2023/11/29 12:26:26;;;;;;;3.2;2.6;;;;;;;;;;;;;
2023/11/29 12:28:52;;;;;;;3.5;2.6;;;;;;;;;;;;;
2023/11/29 12:31:19;;;;;;;7;3.8;;;;;;;;;;;;;
2023/11/29 12:33:43;;;;;;;4.1;2.9;;;;;;;;;;;;;
2023/11/29 12:36:10;;;;;;;3.8;2.2;;;;;;;;;;;;;
2023/11/29 12:38:35;;;;;;;3.2;1.9;;;;;;;;;;;;;
2023/11/29 12:41:00;;;;;;;2.3;1.8;;;;;;;;;;;;;
2023/11/29 12:43:25;;;;;;;3;2;;;;;;;;;;;;;
2023/11/29 12:45:51;;;;;;;2.8;1.7;;;;;;;;;;;;;
2023/11/29 12:48:17;;;;;;;2.1;1.3;;;;;;;;;;;;;
2023/11/29 12:50:42;;;;;;;3.3;1.7;;;;;;;;;;;;;
2023/11/29 12:53:09;;;;;;;2.7;1.5;;;;;;;;;;;;;
2023/11/29 12:55:34;;;;;;;3;1.8;;;;;;;;;;;;;
2023/11/29 12:57:59;;;;;;;2.4;1.6;;;;;;;;;;;;;
2023/11/29 13:00:24;;;;;;;2.3;1.4;;;;;;;;;;;;;
2023/11/29 13:02:51;;;;;;;1.9;1.6;;;;;;;;;;;;;
2023/11/29 13:05:16;;;;;;;2.5;1.7;;;;;;;;;;;;;
2023/11/29 13:07:42;;;;;;;2.8;1.9;;;;;;;;;;;;;
2023/11/29 13:10:08;;;;;;;4.6;1.8;;;;;;;;;;;;;
2023/11/29 13:12:35;;;;;;;3.9;2.8;;;;;;;;;;;;;
2023/11/29 13:15:01;;;;;;;5;4.1;;;;;;;;;;;;;
2023/11/29 13:17:30;;;;;;;3.5;2;;;;;;;;;;;;;
2023/11/29 13:19:59;;;;;;;2.7;2;;;;;;;;;;;;;
2023/11/29 13:22:23;;;;;;;3;2;;;;;;;;;;;;;
2023/11/29 13:24:55;;;;;;;2.5;1.7;;;;;;;;;;;;;
2023/11/29 13:27:22;;;;;;;1.6;1.5;;;;;;;;;;;;;
2023/11/29 13:29:47;;;;;;;4.4;2.1;;;;;;;;;;;;;
2023/11/29 13:32:15;;;;;;;1.8;1.7;;;;;;;;;;;;;
2023/11/29 13:34:40;;;;;;;2.7;1.9;;;;;;;;;;;;;
2023/11/29 13:37:07;;;;;;;2.5;1.8;;;;;;;;;;;;;
2023/11/29 13:39:31;;;;;;;3.8;2.3;;;;;;;;;;;;;
2023/11/29 13:41:57;;;;;;;2.9;1.7;;;;;;;;;;;;;
2023/11/29 13:44:24;;;;;;;2.6;1.8;;;;;;;;;;;;;
2023/11/29 13:46:49;;;;;;;5.4;2.1;;;;;;;;;;;;;
2023/11/29 13:49:15;;;;;;;2.8;2;;;;;;;;;;;;;
2023/11/29 13:51:40;;;;;;;2.5;1.8;;;;;;;;;;;;;
2023/11/29 13:54:05;;;;;;;2.9;2.1;;;;;;;;;;;;;
2023/11/29 13:56:32;;;;;;;1.4;1.2;;;;;;;;;;;;;
2023/11/29 13:59:00;;;;;;;7.7;5.1;;;;;;;;;;;;;
2023/11/29 14:01:22;;;;;;;7.1;4.3;;;;;;;;;;;;;
2023/11/29 14:03:47;;;;;;;6.4;4.5;;;;;;;;;;;;;
2023/11/29 14:06:13;;;;;;;6.3;4.1;;;;;;;;;;;;;
2023/11/29 14:08:41;;;;;;;6.8;4.3;;;;;;;;;;;;;
2023/11/29 14:11:04;;;;;;;8.2;4.5;;;;;;;;;;;;;
2023/11/29 14:13:31;;;;;;;7.8;4.2;;;;;;;;;;;;;
2023/11/29 14:15:55;;;;;;;5.7;3.3;;;;;;;;;;;;;
2023/11/29 14:18:22;;;;;;;5.2;3.8;;;;;;;;;;;;;
2023/11/29 14:20:47;;;;;;;4.5;3.8;;;;;;;;;;;;;
2023/11/29 14:23:12;;;;;;;4.5;3.2;;;;;;;;;;;;;
2023/11/29 14:25:37;;;;;;;7.7;4.3;;;;;;;;;;;;;
2023/11/29 14:28:04;;;;;;;7.7;4.3;;;;;;;;;;;;;
2023/11/29 14:30:29;;;;;;;8.4;4.4;;;;;;;;;;;;;
2023/11/29 14:32:55;;;;;;;9.1;4.9;;;;;;;;;;;;;
2023/11/29 14:35:21;;;;;;;10.6;6.6;;;;;;;;;;;;;
2023/11/29 14:37:47;;;;;;;9.9;5.9;;;;;;;;;;;;;
2023/11/29 14:40:13;;;;;;;6;4.1;;;;;;;;;;;;;
2023/11/29 14:42:40;;;;;;;6.4;4.4;;;;;;;;;;;;;
2023/11/29 14:45:06;;;;;;;10.8;6.1;;;;;;;;;;;;;
2023/11/29 14:47:36;;;;;;;9.3;6.5;;;;;;;;;;;;;
2023/11/29 14:49:59;;;;;;;11.5;7.8;;;;;;;;;;;;;
2023/11/29 14:52:25;;;;;;;7.9;6.3;;;;;;;;;;;;;
2023/11/29 14:54:50;;;;;;;10.3;7.2;;;;;;;;;;;;;
2023/11/29 14:57:16;;;;;;;10.9;7.3;;;;;;;;;;;;;
2023/11/29 14:59:41;;;;;;;14.5;8.6;;;;;;;;;;;;;
2023/11/29 15:02:07;;;;;;;13.4;7.9;;;;;;;;;;;;;
2023/11/29 15:04:33;;;;;;;12.2;7.5;;;;;;;;;;;;;
2023/11/29 15:06:58;;;;;;;11;6.4;;;;;;;;;;;;;
2023/11/29 15:09:25;;;;;;;11.9;7.3;;;;;;;;;;;;;
2023/11/29 15:11:53;;;;;;;14.1;8.7;;;;;;;;;;;;;
2023/11/29 15:14:15;;;;;;;15.9;10.5;;;;;;;;;;;;;
2023/11/29 15:16:41;;;;;;;13.6;9.9;;;;;;;;;;;;;
2023/11/29 15:19:08;;;;;;;14.3;9.9;;;;;;;;;;;;;
2023/11/29 15:21:31;;;;;;;15.4;10.5;;;;;;;;;;;;;
2023/11/29 15:24:01;;;;;;;10.3;8.2;;;;;;;;;;;;;
2023/11/29 15:26:25;;;;;;;12.4;9.3;;;;;;;;;;;;;
2023/11/29 15:28:52;;;;;;;14.5;8.1;;;;;;;;;;;;;
2023/11/29 15:31:17;;;;;;;12.8;8.7;;;;;;;;;;;;;
2023/11/29 15:33:43;;;;;;;16;11.2;;;;;;;;;;;;;
2023/11/29 15:36:08;;;;;;;18.1;10.4;;;;;;;;;;;;;
2023/11/29 15:38:33;;;;;;;14.3;9.3;;;;;;;;;;;;;
2023/11/29 15:40:59;;;;;;;15.2;9.8;;;;;;;;;;;;;
2023/11/29 15:43:24;;;;;;;14.4;8.5;;;;;;;;;;;;;
2023/11/29 15:45:50;;;;;;;22.8;12.1;;;;;;;;;;;;;
2023/11/29 15:48:17;;;;;;;21;12.9;;;;;;;;;;;;;
2023/11/29 15:50:42;;;;;;;23.1;13.4;;;;;;;;;;;;;
2023/11/29 15:53:09;;;;;;;30;17.1;;;;;;;;;;;;;
2023/11/29 15:55:34;;;;;;;19.1;12.1;;;;;;;;;;;;;
2023/11/29 15:58:00;;;;;;;32.1;18.8;;;;;;;;;;;;;
2023/11/29 16:00:24;;;;;;;33.9;21.8;;;;;;;;;;;;;
2023/11/29 16:02:52;;;;;;;18;11.1;;;;;;;;;;;;;
2023/11/29 16:05:17;;;;;;;17.9;11.7;;;;;;;;;;;;;
2023/11/29 16:07:45;;;;;;;17.6;10.9;;;;;;;;;;;;;
2023/11/29 16:10:09;;;;;;;16.8;10.6;;;;;;;;;;;;;
2023/11/29 16:12:37;;;;;;;19.1;12;;;;;;;;;;;;;
2023/11/29 16:15:03;;;;;;;17.2;11.2;;;;;;;;;;;;;
2023/11/29 16:17:33;;;;;;;19;12;;;;;;;;;;;;;
2023/11/29 16:20:00;;;;;;;18.9;11.2;;;;;;;;;;;;;
2023/11/29 16:22:25;;;;;;;97.7;46.9;;;;;;;;;;;;;
2023/11/29 16:24:51;;;;;;;21.4;12.5;;;;;;;;;;;;;
2023/11/29 16:27:16;;;;;;;20.5;12.1;;;;;;;;;;;;;
2023/11/29 16:29:45;;;;;;;22.1;13.4;;;;;;;;;;;;;
2023/11/29 16:32:07;;;;;;;17.3;11.8;;;;;;;;;;;;;
2023/11/29 16:34:35;;;;;;;20.2;12.4;;;;;;;;;;;;;
2023/11/29 16:37:00;;;;;;;17.9;11.1;;;;;;;;;;;;;
2023/11/29 16:39:26;;;;;;;135.8;87.2;;;;;;;;;;;;;
2023/11/29 16:41:51;;;;;;;76.6;40;;;;;;;;;;;;;
2023/11/29 16:44:18;;;;;;;39.7;21.4;;;;;;;;;;;;;
2023/11/29 16:46:43;;;;;;;98.3;46.2;;;;;;;;;;;;;
2023/11/29 16:49:08;;;;;;;20.1;11.1;;;;;;;;;;;;;
2023/11/29 16:51:33;;;;;;;16.3;9.9;;;;;;;;;;;;;
2023/11/29 16:54:00;;;;;;;15;10.3;;;;;;;;;;;;;
2023/11/29 16:56:25;;;;;;;17.3;11;;;;;;;;;;;;;
2023/11/29 16:58:50;;;;;;;16.7;10.7;;;;;;;;;;;;;
2023/11/29 17:01:16;;;;;;;17.9;10.7;;;;;;;;;;;;;
2023/11/29 17:03:43;;;;;;;16;10.3;;;;;;;;;;;;;
2023/11/29 17:06:08;;;;;;;25.1;13.1;;;;;;;;;;;;;
2023/11/29 17:08:34;;;;;;;29.4;17.1;;;;;;;;;;;;;
2023/11/29 17:10:59;;;;;;;27.2;15.6;;;;;;;;;;;;;
2023/11/29 17:13:27;;;;;;;18.1;11.1;;;;;;;;;;;;;
2023/11/29 17:15:52;;;;;;;18.4;10.2;;;;;;;;;;;;;
2023/11/29 17:18:18;;;;;;;19.2;12.2;;;;;;;;;;;;;
2023/11/29 17:20:44;;;;;;;20.4;13.3;;;;;;;;;;;;;
2023/11/29 17:23:10;;;;;;;18.4;11;;;;;;;;;;;;;
2023/11/29 17:25:36;;;;;;;14.3;9.1;;;;;;;;;;;;;
2023/11/29 17:28:01;;;;;;;20.5;12.3;;;;;;;;;;;;;
2023/11/29 17:30:26;;;;;;;32.1;17.8;;;;;;;;;;;;;
2023/11/29 17:32:52;;;;;;;25.2;15.4;;;;;;;;;;;;;
2023/11/29 17:35:17;;;;;;;36.5;22.7;;;;;;;;;;;;;
2023/11/29 17:37:46;;;;;;;43.7;25.9;;;;;;;;;;;;;
2023/11/29 17:40:13;;;;;;;29.7;17.4;;;;;;;;;;;;;
2023/11/29 17:42:43;;;;;;;22.4;14.2;;;;;;;;;;;;;
2023/11/29 17:45:13;;;;;;;16.4;11.2;;;;;;;;;;;;;
2023/11/29 17:47:42;;;;;;;15.2;9.7;;;;;;;;;;;;;
2023/11/29 17:50:08;;;;;;;13.8;9.7;;;;;;;;;;;;;
2023/11/29 17:52:36;;;;;;;10;6.6;;;;;;;;;;;;;
2023/11/29 17:55:04;;;;;;;16;9.4;;;;;;;;;;;;;
2023/11/29 17:57:28;;;;;;;11.9;8.2;;;;;;;;;;;;;
2023/11/29 17:59:55;;;;;;;22;11;;;;;;;;;;;;;
2023/11/29 18:02:20;;;;;;;29.9;15.4;;;;;;;;;;;;;
2023/11/29 18:04:47;;;;;;;22.2;13.4;;;;;;;;;;;;;
2023/11/29 18:07:12;;;;;;;25.8;14.8;;;;;;;;;;;;;
2023/11/29 18:09:39;;;;;;;28;16.4;;;;;;;;;;;;;
2023/11/29 18:12:04;;;;;;;29;16.9;;;;;;;;;;;;;
2023/11/29 18:14:29;;;;;;;31.6;17.8;;;;;;;;;;;;;
2023/11/29 18:16:54;;;;;;;33.7;21.1;;;;;;;;;;;;;
2023/11/29 18:19:21;;;;;;;40.3;26.5;;;;;;;;;;;;;
2023/11/29 18:21:46;;;;;;;38;22.9;;;;;;;;;;;;;
2023/11/29 18:24:12;;;;;;;28.4;18.6;;;;;;;;;;;;;
2023/11/29 18:26:37;;;;;;;29.4;17.4;;;;;;;;;;;;;
2023/11/29 18:29:02;;;;;;;31.4;17.6;;;;;;;;;;;;;
2023/11/29 18:31:27;;;;;;;21;12.8;;;;;;;;;;;;;
2023/11/29 18:33:55;;;;;;;19;11.9;;;;;;;;;;;;;
2023/11/29 18:36:20;;;;;;;18.3;11.2;;;;;;;;;;;;;
2023/11/29 18:38:45;;;;;;;15.7;10.8;;;;;;;;;;;;;
2023/11/29 18:41:10;;;;;;;15.5;9.8;;;;;;;;;;;;;
2023/11/29 18:43:36;;;;;;;16.8;10.6;;;;;;;;;;;;;
2023/11/29 18:46:01;;;;;;;18.1;11.9;;;;;;;;;;;;;
2023/11/29 18:48:29;;;;;;;24.5;15.7;;;;;;;;;;;;;
2023/11/29 18:50:54;;;;;;;31;19.6;;;;;;;;;;;;;
2023/11/29 18:53:20;;;;;;;30.8;19.9;;;;;;;;;;;;;
2023/11/29 18:55:46;;;;;;;33.4;20;;;;;;;;;;;;;
2023/11/29 18:58:11;;;;;;;38.2;23.8;;;;;;;;;;;;;
2023/11/29 19:00:36;;;;;;;36.4;22;;;;;;;;;;;;;
2023/11/29 19:03:03;;;;;;;36.3;21.3;;;;;;;;;;;;;
2023/11/29 19:05:28;;;;;;;27.9;16.8;;;;;;;;;;;;;
2023/11/29 19:07:54;;;;;;;19.4;12.3;;;;;;;;;;;;;
2023/11/29 19:10:19;;;;;;;16.6;11.1;;;;;;;;;;;;;
2023/11/29 19:12:44;;;;;;;20.7;12.1;;;;;;;;;;;;;
2023/11/29 19:15:10;;;;;;;25.4;17.5;;;;;;;;;;;;;
2023/11/29 19:17:40;;;;;;;24.2;17.2;;;;;;;;;;;;;
2023/11/29 19:20:10;;;;;;;25.2;16.6;;;;;;;;;;;;;
2023/11/29 19:22:39;;;;;;;26.9;17.2;;;;;;;;;;;;;
2023/11/29 19:25:04;;;;;;;23.8;15.3;;;;;;;;;;;;;
2023/11/29 19:27:30;;;;;;;17.1;11.8;;;;;;;;;;;;;
2023/11/29 19:29:55;;;;;;;15.8;11;;;;;;;;;;;;;
2023/11/29 19:32:24;;;;;;;12.7;8.2;;;;;;;;;;;;;
2023/11/29 19:34:49;;;;;;;11.4;7.1;;;;;;;;;;;;;
2023/11/29 19:37:14;;;;;;;14.4;8.5;;;;;;;;;;;;;
2023/11/29 19:39:41;;;;;;;18;10.2;;;;;;;;;;;;;
2023/11/29 19:42:05;;;;;;;13.6;8.7;;;;;;;;;;;;;
2023/11/29 19:44:30;;;;;;;17.9;10.3;;;;;;;;;;;;;
2023/11/29 19:46:56;;;;;;;23.3;13.4;;;;;;;;;;;;;
2023/11/29 19:49:23;;;;;;;35.1;16.3;;;;;;;;;;;;;
2023/11/29 19:51:48;;;;;;;26.6;12.7;;;;;;;;;;;;;
2023/11/29 19:54:13;;;;;;;25.7;14.1;;;;;;;;;;;;;
2023/11/29 19:56:38;;;;;;;25.5;13.1;;;;;;;;;;;;;
2023/11/29 19:59:07;;;;;;;26.7;13.7;;;;;;;;;;;;;
2023/11/29 20:01:32;;;;;;;22.2;12.4;;;;;;;;;;;;;
2023/11/29 20:03:59;;;;;;;19.4;11.8;;;;;;;;;;;;;
2023/11/29 20:06:24;;;;;;;21.9;13.6;;;;;;;;;;;;;
2023/11/29 20:08:51;;;;;;;21.1;12.8;;;;;;;;;;;;;
2023/11/29 20:11:16;;;;;;;19.8;11.7;;;;;;;;;;;;;
2023/11/29 20:13:41;;;;;;;16.4;10.2;;;;;;;;;;;;;
2023/11/29 20:16:06;;;;;;;17.7;10.1;;;;;;;;;;;;;
2023/11/29 20:18:33;;;;;;;15.1;8.6;;;;;;;;;;;;;
2023/11/29 20:20:57;;;;;;;16;8.8;;;;;;;;;;;;;
2023/11/29 20:23:26;;;;;;;18.1;8.7;;;;;;;;;;;;;
2023/11/29 20:25:49;;;;;;;17.3;9.9;;;;;;;;;;;;;